sensor_id;sensor_type;location;lat;lon;timestamp;temperature;humidity
1379;DHT22;683;48.738;9.226;2023-02-24T00:00:10;8.70;99.90
1379;DHT22;683;48.738;9.226;2023-02-24T00:02:58;8.70;99.90
1379;DHT22;683;48.738;9.226;2023-02-24T00:05:33;8.70;99.90
1379;DHT22;683;48.738;9.226;2023-02-24T00:08:00;8.60;99.90
1379;DHT22;683;48.738;9.226;2023-02-24T00:10:29;8.60;99.90
1379;DHT22;683;48.738;9.226;2023-02-24T00:12:57;8.60;99.90
1379;DHT22;683;48.738;9.226;2023-02-24T00:15:25;8.60;99.90
1379;DHT22;683;48.738;9.226;2023-02-24T00:17:52;8.60;99.90
1379;DHT22;683;48.738;9.226;2023-02-24T00:20:20;8.60;99.90
1379;DHT22;683;48.738;9.226;2023-02-24T00:22:47;8.60;99.90
1379;DHT22;683;48.738;9.226;2023-02-24T00:25:14;8.60;99.90
1379;DHT22;683;48.738;9.226;2023-02-24T00:27:43;8.60;99.90
1379;DHT22;683;48.738;9.226;2023-02-24T00:30:11;8.60;99.90
1379;DHT22;683;48.738;9.226;2023-02-24T00:32:39;8.60;99.90
1379;DHT22;683;48.738;9.226;2023-02-24T00:35:07;8.60;99.90
1379;DHT22;683;48.738;9.226;2023-02-24T00:37:35;8.60;99.90
1379;DHT22;683;48.738;9.226;2023-02-24T00:40:04;8.60;99.90
1379;DHT22;683;48.738;9.226;2023-02-24T00:42:37;8.60;99.90
1379;DHT22;683;48.738;9.226;2023-02-24T00:45:09;8.60;99.90
1379;DHT22;683;48.738;9.226;2023-02-24T00:47:37;8.60;99.90
1379;DHT22;683;48.738;9.226;2023-02-24T00:50:05;8.60;99.90
1379;DHT22;683;48.738;9.226;2023-02-24T00:52:33;8.60;99.90
1379;DHT22;683;48.738;9.226;2023-02-24T00:55:01;8.60;99.90
1379;DHT22;683;48.738;9.226;2023-02-24T00:57:39;8.60;99.90
1379;DHT22;683;48.738;9.226;2023-02-24T01:00:10;8.60;99.90
1379;DHT22;683;48.738;9.226;2023-02-24T01:02:41;8.60;99.90
1379;DHT22;683;48.738;9.226;2023-02-24T01:05:11;8.60;99.90
1379;DHT22;683;48.738;9.226;2023-02-24T01:07:39;8.60;99.90
1379;DHT22;683;48.738;9.226;2023-02-24T01:10:10;8.60;99.90
1379;DHT22;683;48.738;9.226;2023-02-24T01:12:37;8.60;99.90
1379;DHT22;683;48.738;9.226;2023-02-24T01:15:06;8.60;99.90
1379;DHT22;683;48.738;9.226;2023-02-24T01:17:36;8.60;99.90
1379;DHT22;683;48.738;9.226;2023-02-24T01:20:04;8.60;99.90
1379;DHT22;683;48.738;9.226;2023-02-24T01:22:41;8.50;99.90
1379;DHT22;683;48.738;9.226;2023-02-24T01:25:08;8.60;99.90
1379;DHT22;683;48.738;9.226;2023-02-24T01:27:36;8.50;99.90
1379;DHT22;683;48.738;9.226;2023-02-24T01:30:08;8.50;99.90
1379;DHT22;683;48.738;9.226;2023-02-24T01:32:42;8.50;99.90
1379;DHT22;683;48.738;9.226;2023-02-24T01:35:11;8.50;99.90
1379;DHT22;683;48.738;9.226;2023-02-24T01:37:39;8.50;99.90
1379;DHT22;683;48.738;9.226;2023-02-24T01:40:11;8.50;99.90
1379;DHT22;683;48.738;9.226;2023-02-24T01:42:43;8.50;99.90
1379;DHT22;683;48.738;9.226;2023-02-24T01:45:21;8.40;99.90
1379;DHT22;683;48.738;9.226;2023-02-24T01:47:51;8.40;99.90
1379;DHT22;683;48.738;9.226;2023-02-24T01:50:21;8.40;99.90
1379;DHT22;683;48.738;9.226;2023-02-24T01:52:53;8.40;99.90
1379;DHT22;683;48.738;9.226;2023-02-24T01:55:23;8.40;99.90
1379;DHT22;683;48.738;9.226;2023-02-24T01:57:55;8.40;99.90
1379;DHT22;683;48.738;9.226;2023-02-24T02:00:24;8.40;99.90
1379;DHT22;683;48.738;9.226;2023-02-24T02:03:24;8.40;99.90
1379;DHT22;683;48.738;9.226;2023-02-24T02:05:57;8.40;99.90
1379;DHT22;683;48.738;9.226;2023-02-24T02:08:26;8.40;99.90
1379;DHT22;683;48.738;9.226;2023-02-24T02:10:57;8.40;99.90
1379;DHT22;683;48.738;9.226;2023-02-24T02:13:27;8.30;99.90
1379;DHT22;683;48.738;9.226;2023-02-24T02:16:20;8.30;99.90
1379;DHT22;683;48.738;9.226;2023-02-24T02:19:00;8.30;99.90
1379;DHT22;683;48.738;9.226;2023-02-24T02:24:43;8.20;99.90
1379;DHT22;683;48.738;9.226;2023-02-24T02:30:46;8.20;99.90
1379;DHT22;683;48.738;9.226;2023-02-24T02:36:21;8.20;99.90
1379;DHT22;683;48.738;9.226;2023-02-24T02:39:00;8.20;99.90
1379;DHT22;683;48.738;9.226;2023-02-24T02:41:35;8.20;99.90
1379;DHT22;683;48.738;9.226;2023-02-24T02:44:08;8.10;99.90
1379;DHT22;683;48.738;9.226;2023-02-24T02:46:41;8.20;99.90
1379;DHT22;683;48.738;9.226;2023-02-24T02:49:15;8.20;99.90
1379;DHT22;683;48.738;9.226;2023-02-24T02:51:49;8.10;99.90
1379;DHT22;683;48.738;9.226;2023-02-24T02:54:23;8.10;99.90
1379;DHT22;683;48.738;9.226;2023-02-24T02:56:57;8.10;99.90
1379;DHT22;683;48.738;9.226;2023-02-24T02:59:28;8.10;99.90
1379;DHT22;683;48.738;9.226;2023-02-24T03:01:57;8.00;99.90
1379;DHT22;683;48.738;9.226;2023-02-24T03:04:40;8.00;99.90
1379;DHT22;683;48.738;9.226;2023-02-24T03:07:11;7.90;99.90
1379;DHT22;683;48.738;9.226;2023-02-24T03:09:42;7.90;99.90
1379;DHT22;683;48.738;9.226;2023-02-24T03:12:16;7.80;99.90
1379;DHT22;683;48.738;9.226;2023-02-24T03:14:48;7.90;99.90
1379;DHT22;683;48.738;9.226;2023-02-24T03:17:20;7.90;99.90
1379;DHT22;683;48.738;9.226;2023-02-24T03:19:54;7.90;99.90
1379;DHT22;683;48.738;9.226;2023-02-24T03:22:32;7.90;99.90
1379;DHT22;683;48.738;9.226;2023-02-24T03:25:00;7.90;99.90
1379;DHT22;683;48.738;9.226;2023-02-24T03:27:39;7.90;99.90
1379;DHT22;683;48.738;9.226;2023-02-24T03:30:15;7.90;99.90
1379;DHT22;683;48.738;9.226;2023-02-24T03:32:48;7.90;99.90
1379;DHT22;683;48.738;9.226;2023-02-24T03:35:24;8.00;99.90
1379;DHT22;683;48.738;9.226;2023-02-24T03:37:54;8.00;99.90
1379;DHT22;683;48.738;9.226;2023-02-24T03:40:23;8.00;99.90
1379;DHT22;683;48.738;9.226;2023-02-24T03:43:06;8.00;99.90
1379;DHT22;683;48.738;9.226;2023-02-24T03:45:38;8.10;99.90
1379;DHT22;683;48.738;9.226;2023-02-24T03:48:09;8.00;99.90
1379;DHT22;683;48.738;9.226;2023-02-24T03:50:39;8.10;99.90
1379;DHT22;683;48.738;9.226;2023-02-24T03:53:30;8.00;99.90
1379;DHT22;683;48.738;9.226;2023-02-24T03:56:18;8.10;99.90
1379;DHT22;683;48.738;9.226;2023-02-24T03:59:03;8.10;99.90
1379;DHT22;683;48.738;9.226;2023-02-24T04:01:38;8.20;99.90
1379;DHT22;683;48.738;9.226;2023-02-24T04:04:15;8.20;99.90
1379;DHT22;683;48.738;9.226;2023-02-24T04:07:01;8.20;99.90
1379;DHT22;683;48.738;9.226;2023-02-24T04:09:38;8.20;99.90
1379;DHT22;683;48.738;9.226;2023-02-24T04:12:15;8.20;99.90
1379;DHT22;683;48.738;9.226;2023-02-24T04:14:49;8.20;99.90
1379;DHT22;683;48.738;9.226;2023-02-24T04:17:21;8.10;99.90
1379;DHT22;683;48.738;9.226;2023-02-24T04:19:56;8.10;99.90
1379;DHT22;683;48.738;9.226;2023-02-24T04:22:26;8.10;99.90
1379;DHT22;683;48.738;9.226;2023-02-24T04:24:58;8.10;99.90
1379;DHT22;683;48.738;9.226;2023-02-24T04:27:28;8.20;99.90
1379;DHT22;683;48.738;9.226;2023-02-24T04:30:11;8.10;99.90
1379;DHT22;683;48.738;9.226;2023-02-24T04:32:39;8.20;99.90
1379;DHT22;683;48.738;9.226;2023-02-24T04:35:12;8.20;99.90
1379;DHT22;683;48.738;9.226;2023-02-24T04:37:44;8.20;99.90
1379;DHT22;683;48.738;9.226;2023-02-24T04:40:15;8.20;99.90
1379;DHT22;683;48.738;9.226;2023-02-24T04:42:47;8.20;99.90
1379;DHT22;683;48.738;9.226;2023-02-24T04:45:16;8.10;99.90
1379;DHT22;683;48.738;9.226;2023-02-24T04:47:43;8.10;99.90
1379;DHT22;683;48.738;9.226;2023-02-24T04:50:16;8.00;99.90
1379;DHT22;683;48.738;9.226;2023-02-24T04:52:50;8.00;99.90
1379;DHT22;683;48.738;9.226;2023-02-24T04:55:21;8.00;99.90
1379;DHT22;683;48.738;9.226;2023-02-24T04:57:51;7.90;99.90
1379;DHT22;683;48.738;9.226;2023-02-24T05:00:19;7.90;99.90
1379;DHT22;683;48.738;9.226;2023-02-24T05:02:47;7.90;99.90
1379;DHT22;683;48.738;9.226;2023-02-24T05:05:16;7.90;99.90
1379;DHT22;683;48.738;9.226;2023-02-24T05:07:45;7.90;99.90
1379;DHT22;683;48.738;9.226;2023-02-24T05:10:13;7.90;99.90
1379;DHT22;683;48.738;9.226;2023-02-24T05:12:42;7.90;99.90
1379;DHT22;683;48.738;9.226;2023-02-24T05:15:11;7.90;99.90
1379;DHT22;683;48.738;9.226;2023-02-24T05:17:38;7.90;99.90
1379;DHT22;683;48.738;9.226;2023-02-24T05:20:08;7.90;99.90
1379;DHT22;683;48.738;9.226;2023-02-24T05:22:53;7.90;99.90
1379;DHT22;683;48.738;9.226;2023-02-24T05:25:21;7.90;99.90
1379;DHT22;683;48.738;9.226;2023-02-24T05:27:51;7.90;99.90
1379;DHT22;683;48.738;9.226;2023-02-24T05:30:22;7.90;99.90
1379;DHT22;683;48.738;9.226;2023-02-24T05:32:49;7.80;99.90
1379;DHT22;683;48.738;9.226;2023-02-24T05:35:19;7.80;99.90
1379;DHT22;683;48.738;9.226;2023-02-24T05:37:46;7.90;99.90
1379;DHT22;683;48.738;9.226;2023-02-24T05:40:14;7.80;99.90
1379;DHT22;683;48.738;9.226;2023-02-24T05:42:45;7.80;99.90
1379;DHT22;683;48.738;9.226;2023-02-24T05:45:14;7.80;99.90
1379;DHT22;683;48.738;9.226;2023-02-24T05:47:43;7.80;99.90
1379;DHT22;683;48.738;9.226;2023-02-24T05:50:12;7.90;99.90
1379;DHT22;683;48.738;9.226;2023-02-24T05:52:39;7.80;99.90
1379;DHT22;683;48.738;9.226;2023-02-24T05:55:10;7.80;99.90
1379;DHT22;683;48.738;9.226;2023-02-24T05:57:40;7.90;99.90
1379;DHT22;683;48.738;9.226;2023-02-24T06:00:10;7.90;99.90
1379;DHT22;683;48.738;9.226;2023-02-24T06:02:43;7.90;99.90
1379;DHT22;683;48.738;9.226;2023-02-24T06:05:16;8.00;99.90
1379;DHT22;683;48.738;9.226;2023-02-24T06:07:55;8.00;99.90
1379;DHT22;683;48.738;9.226;2023-02-24T06:10:30;8.00;99.90
1379;DHT22;683;48.738;9.226;2023-02-24T06:12:59;8.00;99.90
1379;DHT22;683;48.738;9.226;2023-02-24T06:15:27;7.90;99.90
1379;DHT22;683;48.738;9.226;2023-02-24T06:17:55;7.90;99.90
1379;DHT22;683;48.738;9.226;2023-02-24T06:20:27;7.90;99.90
1379;DHT22;683;48.738;9.226;2023-02-24T06:22:55;7.90;99.90
1379;DHT22;683;48.738;9.226;2023-02-24T06:25:23;7.90;99.90
1379;DHT22;683;48.738;9.226;2023-02-24T06:27:51;7.90;99.90
1379;DHT22;683;48.738;9.226;2023-02-24T06:30:21;7.90;99.90
1379;DHT22;683;48.738;9.226;2023-02-24T06:32:50;7.90;99.90
1379;DHT22;683;48.738;9.226;2023-02-24T06:35:19;7.90;99.90
1379;DHT22;683;48.738;9.226;2023-02-24T06:37:48;7.90;99.90
1379;DHT22;683;48.738;9.226;2023-02-24T06:40:16;7.90;99.90
1379;DHT22;683;48.738;9.226;2023-02-24T06:42:45;7.90;99.90
1379;DHT22;683;48.738;9.226;2023-02-24T06:45:13;8.00;99.90
1379;DHT22;683;48.738;9.226;2023-02-24T06:47:41;7.90;99.90
1379;DHT22;683;48.738;9.226;2023-02-24T06:50:11;7.90;99.90
1379;DHT22;683;48.738;9.226;2023-02-24T06:52:40;7.90;99.90
1379;DHT22;683;48.738;9.226;2023-02-24T06:55:09;7.90;99.90
1379;DHT22;683;48.738;9.226;2023-02-24T06:57:51;7.90;99.90
1379;DHT22;683;48.738;9.226;2023-02-24T07:00:23;7.90;99.90
1379;DHT22;683;48.738;9.226;2023-02-24T07:03:05;7.90;99.90
1379;DHT22;683;48.738;9.226;2023-02-24T07:05:45;7.90;99.90
1379;DHT22;683;48.738;9.226;2023-02-24T07:08:22;7.90;99.90
1379;DHT22;683;48.738;9.226;2023-02-24T07:10:53;8.00;99.90
1379;DHT22;683;48.738;9.226;2023-02-24T07:13:21;8.00;99.90
1379;DHT22;683;48.738;9.226;2023-02-24T07:15:49;8.00;99.90
1379;DHT22;683;48.738;9.226;2023-02-24T07:18:17;8.10;99.90
1379;DHT22;683;48.738;9.226;2023-02-24T07:20:45;8.10;99.90
1379;DHT22;683;48.738;9.226;2023-02-24T07:23:13;8.20;99.90
1379;DHT22;683;48.738;9.226;2023-02-24T07:25:43;8.20;99.90
1379;DHT22;683;48.738;9.226;2023-02-24T07:28:11;8.20;99.90
1379;DHT22;683;48.738;9.226;2023-02-24T07:30:39;8.20;99.90
1379;DHT22;683;48.738;9.226;2023-02-24T07:33:07;8.20;99.90
1379;DHT22;683;48.738;9.226;2023-02-24T07:35:36;8.20;99.90
1379;DHT22;683;48.738;9.226;2023-02-24T07:38:06;8.20;99.90
1379;DHT22;683;48.738;9.226;2023-02-24T07:40:36;8.20;99.90
1379;DHT22;683;48.738;9.226;2023-02-24T07:43:08;8.20;99.90
1379;DHT22;683;48.738;9.226;2023-02-24T07:45:42;8.20;99.90
1379;DHT22;683;48.738;9.226;2023-02-24T07:48:12;8.20;99.90
1379;DHT22;683;48.738;9.226;2023-02-24T07:50:43;8.20;99.90
1379;DHT22;683;48.738;9.226;2023-02-24T07:53:10;8.30;99.90
1379;DHT22;683;48.738;9.226;2023-02-24T07:55:37;8.20;99.90
1379;DHT22;683;48.738;9.226;2023-02-24T07:58:07;8.20;99.90
1379;DHT22;683;48.738;9.226;2023-02-24T08:00:35;8.20;99.90
1379;DHT22;683;48.738;9.226;2023-02-24T08:03:25;8.20;99.90
1379;DHT22;683;48.738;9.226;2023-02-24T08:05:56;8.20;99.90
1379;DHT22;683;48.738;9.226;2023-02-24T08:08:40;8.20;99.90
1379;DHT22;683;48.738;9.226;2023-02-24T08:11:25;8.20;99.90
1379;DHT22;683;48.738;9.226;2023-02-24T08:14:01;8.20;99.90
1379;DHT22;683;48.738;9.226;2023-02-24T08:16:28;8.30;99.90
1379;DHT22;683;48.738;9.226;2023-02-24T08:19:05;8.30;99.90
1379;DHT22;683;48.738;9.226;2023-02-24T08:21:32;8.20;99.90
1379;DHT22;683;48.738;9.226;2023-02-24T08:24:06;8.20;99.90
1379;DHT22;683;48.738;9.226;2023-02-24T08:26:51;8.20;99.90
1379;DHT22;683;48.738;9.226;2023-02-24T08:29:31;8.10;99.90
1379;DHT22;683;48.738;9.226;2023-02-24T08:32:06;8.10;99.90
1379;DHT22;683;48.738;9.226;2023-02-24T08:34:34;8.20;99.90
1379;DHT22;683;48.738;9.226;2023-02-24T08:37:02;8.20;99.90
1379;DHT22;683;48.738;9.226;2023-02-24T08:39:29;8.30;99.90
1379;DHT22;683;48.738;9.226;2023-02-24T08:42:01;8.40;99.90
1379;DHT22;683;48.738;9.226;2023-02-24T08:44:30;8.40;99.90
1379;DHT22;683;48.738;9.226;2023-02-24T08:47:00;8.50;99.90
1379;DHT22;683;48.738;9.226;2023-02-24T08:49:30;8.60;99.90
1379;DHT22;683;48.738;9.226;2023-02-24T08:51:58;8.60;99.90
1379;DHT22;683;48.738;9.226;2023-02-24T08:54:27;8.60;99.90
1379;DHT22;683;48.738;9.226;2023-02-24T08:56:58;8.60;99.90
1379;DHT22;683;48.738;9.226;2023-02-24T08:59:35;8.80;99.90
1379;DHT22;683;48.738;9.226;2023-02-24T09:02:16;8.90;99.90
1379;DHT22;683;48.738;9.226;2023-02-24T09:04:51;9.10;99.90
1379;DHT22;683;48.738;9.226;2023-02-24T09:07:22;9.20;99.90
1379;DHT22;683;48.738;9.226;2023-02-24T09:09:50;9.20;99.90
1379;DHT22;683;48.738;9.226;2023-02-24T09:12:23;9.40;99.90
1379;DHT22;683;48.738;9.226;2023-02-24T09:14:53;9.70;99.90
1379;DHT22;683;48.738;9.226;2023-02-24T09:17:23;10.10;99.90
1379;DHT22;683;48.738;9.226;2023-02-24T09:20:07;10.30;99.90
1379;DHT22;683;48.738;9.226;2023-02-24T09:22:53;10.50;99.90
1379;DHT22;683;48.738;9.226;2023-02-24T09:25:31;10.60;99.90
1379;DHT22;683;48.738;9.226;2023-02-24T09:28:11;10.60;99.90
1379;DHT22;683;48.738;9.226;2023-02-24T09:30:45;10.40;99.90
1379;DHT22;683;48.738;9.226;2023-02-24T09:33:21;10.30;99.90
1379;DHT22;683;48.738;9.226;2023-02-24T09:35:52;10.40;99.90
1379;DHT22;683;48.738;9.226;2023-02-24T09:38:28;10.40;99.90
1379;DHT22;683;48.738;9.226;2023-02-24T09:41:22;10.40;99.90
1379;DHT22;683;48.738;9.226;2023-02-24T09:43:58;10.40;99.90
1379;DHT22;683;48.738;9.226;2023-02-24T09:46:37;10.40;99.90
1379;DHT22;683;48.738;9.226;2023-02-24T09:49:12;10.40;99.90
1379;DHT22;683;48.738;9.226;2023-02-24T09:51:42;10.30;99.90
1379;DHT22;683;48.738;9.226;2023-02-24T09:54:15;10.30;99.90
1379;DHT22;683;48.738;9.226;2023-02-24T09:56:49;10.00;99.90
1379;DHT22;683;48.738;9.226;2023-02-24T09:59:29;10.00;99.90
1379;DHT22;683;48.738;9.226;2023-02-24T10:02:12;10.00;99.90
1379;DHT22;683;48.738;9.226;2023-02-24T10:04:55;9.90;99.90
1379;DHT22;683;48.738;9.226;2023-02-24T10:07:34;9.80;99.90
1379;DHT22;683;48.738;9.226;2023-02-24T10:10:09;9.80;99.90
1379;DHT22;683;48.738;9.226;2023-02-24T10:12:57;9.80;99.90
1379;DHT22;683;48.738;9.226;2023-02-24T10:15:31;10.10;99.90
1379;DHT22;683;48.738;9.226;2023-02-24T10:18:30;10.30;99.90
1379;DHT22;683;48.738;9.226;2023-02-24T10:21:17;10.60;99.90
1379;DHT22;683;48.738;9.226;2023-02-24T10:24:06;10.70;99.90
1379;DHT22;683;48.738;9.226;2023-02-24T10:26:38;10.80;99.90
1379;DHT22;683;48.738;9.226;2023-02-24T10:29:21;10.70;99.90
1379;DHT22;683;48.738;9.226;2023-02-24T10:32:15;10.90;99.90
1379;DHT22;683;48.738;9.226;2023-02-24T10:34:52;11.10;99.90
1379;DHT22;683;48.738;9.226;2023-02-24T10:37:21;11.40;99.90
1379;DHT22;683;48.738;9.226;2023-02-24T10:39:56;11.40;99.90
1379;DHT22;683;48.738;9.226;2023-02-24T10:42:25;11.50;99.90
1379;DHT22;683;48.738;9.226;2023-02-24T10:45:04;11.60;99.90
1379;DHT22;683;48.738;9.226;2023-02-24T10:47:37;11.60;99.90
1379;DHT22;683;48.738;9.226;2023-02-24T10:50:21;11.40;99.90
1379;DHT22;683;48.738;9.226;2023-02-24T10:52:52;11.40;99.90
1379;DHT22;683;48.738;9.226;2023-02-24T10:55:43;11.20;99.90
1379;DHT22;683;48.738;9.226;2023-02-24T10:58:30;11.00;99.90
1379;DHT22;683;48.738;9.226;2023-02-24T11:01:13;11.00;99.90
1379;DHT22;683;48.738;9.226;2023-02-24T11:03:47;10.90;99.90
1379;DHT22;683;48.738;9.226;2023-02-24T11:06:29;10.60;99.90
1379;DHT22;683;48.738;9.226;2023-02-24T11:09:19;10.50;99.90
1379;DHT22;683;48.738;9.226;2023-02-24T11:12:05;10.20;99.90
1379;DHT22;683;48.738;9.226;2023-02-24T11:14:54;10.20;99.90
1379;DHT22;683;48.738;9.226;2023-02-24T11:17:45;10.30;99.90
1379;DHT22;683;48.738;9.226;2023-02-24T11:20:24;10.20;99.90
1379;DHT22;683;48.738;9.226;2023-02-24T11:22:54;10.30;99.90
1379;DHT22;683;48.738;9.226;2023-02-24T11:25:25;10.30;99.90
1379;DHT22;683;48.738;9.226;2023-02-24T11:27:54;10.30;99.90
1379;DHT22;683;48.738;9.226;2023-02-24T11:30:31;10.30;99.90
1379;DHT22;683;48.738;9.226;2023-02-24T11:33:26;10.30;99.90
1379;DHT22;683;48.738;9.226;2023-02-24T11:36:02;10.30;99.90
1379;DHT22;683;48.738;9.226;2023-02-24T11:38:38;10.30;99.90
1379;DHT22;683;48.738;9.226;2023-02-24T11:41:16;10.20;99.90
1379;DHT22;683;48.738;9.226;2023-02-24T11:43:53;10.20;99.90
1379;DHT22;683;48.738;9.226;2023-02-24T11:46:32;10.30;99.90
1379;DHT22;683;48.738;9.226;2023-02-24T11:49:07;10.20;99.90
1379;DHT22;683;48.738;9.226;2023-02-24T11:51:41;10.20;99.90
1379;DHT22;683;48.738;9.226;2023-02-24T11:54:13;10.20;99.90
1379;DHT22;683;48.738;9.226;2023-02-24T11:56:44;10.20;99.90
1379;DHT22;683;48.738;9.226;2023-02-24T11:59:16;10.30;99.90
1379;DHT22;683;48.738;9.226;2023-02-24T12:01:49;10.40;99.90
1379;DHT22;683;48.738;9.226;2023-02-24T12:04:21;10.60;99.90
1379;DHT22;683;48.738;9.226;2023-02-24T12:06:55;10.80;99.90
1379;DHT22;683;48.738;9.226;2023-02-24T12:09:29;10.80;99.90
1379;DHT22;683;48.738;9.226;2023-02-24T12:12:00;11.00;99.90
1379;DHT22;683;48.738;9.226;2023-02-24T12:14:32;11.20;99.90
1379;DHT22;683;48.738;9.226;2023-02-24T12:17:11;11.30;99.90
1379;DHT22;683;48.738;9.226;2023-02-24T12:19:52;11.60;99.90
1379;DHT22;683;48.738;9.226;2023-02-24T12:22:25;12.10;99.90
1379;DHT22;683;48.738;9.226;2023-02-24T12:24:56;12.40;99.90
1379;DHT22;683;48.738;9.226;2023-02-24T12:27:37;12.60;99.90
1379;DHT22;683;48.738;9.226;2023-02-24T12:30:34;12.60;99.90
1379;DHT22;683;48.738;9.226;2023-02-24T12:33:25;12.30;98.90
1379;DHT22;683;48.738;9.226;2023-02-24T12:36:00;12.10;99.70
1379;DHT22;683;48.738;9.226;2023-02-24T12:38:43;12.00;99.50
1379;DHT22;683;48.738;9.226;2023-02-24T12:41:28;12.10;99.00
1379;DHT22;683;48.738;9.226;2023-02-24T12:44:03;12.30;98.40
1379;DHT22;683;48.738;9.226;2023-02-24T12:46:35;12.40;97.50
1379;DHT22;683;48.738;9.226;2023-02-24T12:49:15;12.70;97.80
1379;DHT22;683;48.738;9.226;2023-02-24T12:51:55;12.80;97.00
1379;DHT22;683;48.738;9.226;2023-02-24T12:54:29;12.80;96.20
1379;DHT22;683;48.738;9.226;2023-02-24T12:57:06;12.80;96.20
1379;DHT22;683;48.738;9.226;2023-02-24T12:59:38;12.80;95.80
1379;DHT22;683;48.738;9.226;2023-02-24T13:02:12;12.70;95.90
1379;DHT22;683;48.738;9.226;2023-02-24T13:04:49;12.20;95.80
1379;DHT22;683;48.738;9.226;2023-02-24T13:07:40;11.80;97.20
1379;DHT22;683;48.738;9.226;2023-02-24T13:10:27;11.70;97.60
1379;DHT22;683;48.738;9.226;2023-02-24T13:13:06;11.50;98.40
1379;DHT22;683;48.738;9.226;2023-02-24T13:15:35;11.40;98.30
1379;DHT22;683;48.738;9.226;2023-02-24T13:18:03;11.20;98.50
1379;DHT22;683;48.738;9.226;2023-02-24T13:20:32;11.40;99.10
1379;DHT22;683;48.738;9.226;2023-02-24T13:23:01;11.50;98.90
1379;DHT22;683;48.738;9.226;2023-02-24T13:25:32;11.60;98.60
1379;DHT22;683;48.738;9.226;2023-02-24T13:28:04;11.60;98.30
1379;DHT22;683;48.738;9.226;2023-02-24T13:30:35;11.60;98.40
1379;DHT22;683;48.738;9.226;2023-02-24T13:33:22;11.50;98.70
1379;DHT22;683;48.738;9.226;2023-02-24T13:35:51;11.50;98.90
1379;DHT22;683;48.738;9.226;2023-02-24T13:38:24;11.40;98.80
1379;DHT22;683;48.738;9.226;2023-02-24T13:40:51;11.30;99.30
1379;DHT22;683;48.738;9.226;2023-02-24T13:43:27;11.10;99.90
1379;DHT22;683;48.738;9.226;2023-02-24T13:45:58;11.10;99.90
1379;DHT22;683;48.738;9.226;2023-02-24T13:51:46;11.10;99.90
1379;DHT22;683;48.738;9.226;2023-02-24T14:00:25;11.20;99.90
1379;DHT22;683;48.738;9.226;2023-02-24T14:02:54;11.20;99.90
1379;DHT22;683;48.738;9.226;2023-02-24T14:05:26;11.30;99.90
1379;DHT22;683;48.738;9.226;2023-02-24T14:07:57;11.20;99.90
1379;DHT22;683;48.738;9.226;2023-02-24T14:10:29;11.20;99.90
1379;DHT22;683;48.738;9.226;2023-02-24T14:13:02;11.20;99.90
1379;DHT22;683;48.738;9.226;2023-02-24T14:15:33;11.30;99.90
1379;DHT22;683;48.738;9.226;2023-02-24T14:18:04;11.30;99.90
1379;DHT22;683;48.738;9.226;2023-02-24T14:20:33;11.30;99.90
1379;DHT22;683;48.738;9.226;2023-02-24T14:23:20;11.20;99.90
1379;DHT22;683;48.738;9.226;2023-02-24T14:25:51;11.00;99.90
1379;DHT22;683;48.738;9.226;2023-02-24T14:28:22;10.90;99.90
1379;DHT22;683;48.738;9.226;2023-02-24T14:30:54;10.80;99.90
1379;DHT22;683;48.738;9.226;2023-02-24T14:33:29;10.70;99.90
1379;DHT22;683;48.738;9.226;2023-02-24T14:35:57;10.60;99.90
1379;DHT22;683;48.738;9.226;2023-02-24T14:38:32;10.60;99.90
1379;DHT22;683;48.738;9.226;2023-02-24T14:41:00;10.50;99.90
1379;DHT22;683;48.738;9.226;2023-02-24T14:43:28;10.50;99.90
1379;DHT22;683;48.738;9.226;2023-02-24T14:45:57;10.40;99.90
1379;DHT22;683;48.738;9.226;2023-02-24T14:48:26;10.20;99.90
1379;DHT22;683;48.738;9.226;2023-02-24T14:50:55;10.20;99.90
1379;DHT22;683;48.738;9.226;2023-02-24T14:53:26;10.20;99.90
1379;DHT22;683;48.738;9.226;2023-02-24T14:55:57;10.20;99.90
1379;DHT22;683;48.738;9.226;2023-02-24T14:58:30;10.20;99.90
1379;DHT22;683;48.738;9.226;2023-02-24T15:01:02;10.10;99.90
1379;DHT22;683;48.738;9.226;2023-02-24T15:03:34;10.10;99.90
1379;DHT22;683;48.738;9.226;2023-02-24T15:06:05;10.10;99.90
1379;DHT22;683;48.738;9.226;2023-02-24T15:08:36;10.00;99.90
1379;DHT22;683;48.738;9.226;2023-02-24T15:11:17;9.90;99.90
1379;DHT22;683;48.738;9.226;2023-02-24T15:13:46;9.90;99.90
1379;DHT22;683;48.738;9.226;2023-02-24T15:16:20;9.90;99.90
1379;DHT22;683;48.738;9.226;2023-02-24T15:18:50;9.90;99.90
1379;DHT22;683;48.738;9.226;2023-02-24T15:21:21;9.80;99.90
1379;DHT22;683;48.738;9.226;2023-02-24T15:23:56;9.80;99.90
1379;DHT22;683;48.738;9.226;2023-02-24T15:26:27;9.70;99.90
1379;DHT22;683;48.738;9.226;2023-02-24T15:29:03;9.70;99.90
1379;DHT22;683;48.738;9.226;2023-02-24T15:31:45;9.70;99.90
1379;DHT22;683;48.738;9.226;2023-02-24T15:34:16;9.70;99.90
1379;DHT22;683;48.738;9.226;2023-02-24T15:36:44;9.70;99.90
1379;DHT22;683;48.738;9.226;2023-02-24T15:39:18;9.70;99.90
1379;DHT22;683;48.738;9.226;2023-02-24T15:41:51;9.60;99.90
1379;DHT22;683;48.738;9.226;2023-02-24T15:44:32;9.60;99.90
1379;DHT22;683;48.738;9.226;2023-02-24T15:47:19;9.60;99.90
1379;DHT22;683;48.738;9.226;2023-02-24T15:49:47;9.60;99.90
1379;DHT22;683;48.738;9.226;2023-02-24T15:52:19;9.60;99.90
1379;DHT22;683;48.738;9.226;2023-02-24T15:54:48;9.60;99.90
1379;DHT22;683;48.738;9.226;2023-02-24T15:57:16;9.60;99.90
1379;DHT22;683;48.738;9.226;2023-02-24T15:59:44;9.60;99.90
1379;DHT22;683;48.738;9.226;2023-02-24T16:02:15;9.50;99.90
1379;DHT22;683;48.738;9.226;2023-02-24T16:04:46;9.50;99.90
1379;DHT22;683;48.738;9.226;2023-02-24T16:07:16;9.50;99.90
1379;DHT22;683;48.738;9.226;2023-02-24T16:09:44;9.40;99.90
1379;DHT22;683;48.738;9.226;2023-02-24T16:12:16;9.40;99.90
1379;DHT22;683;48.738;9.226;2023-02-24T16:14:45;9.30;99.90
1379;DHT22;683;48.738;9.226;2023-02-24T16:17:23;9.10;99.90
1379;DHT22;683;48.738;9.226;2023-02-24T16:19:54;8.90;99.90
1379;DHT22;683;48.738;9.226;2023-02-24T16:22:22;8.80;99.90
1379;DHT22;683;48.738;9.226;2023-02-24T16:24:50;8.70;99.90
1379;DHT22;683;48.738;9.226;2023-02-24T16:27:19;8.60;99.90
1379;DHT22;683;48.738;9.226;2023-02-24T16:29:47;8.50;99.90
1379;DHT22;683;48.738;9.226;2023-02-24T16:32:16;8.40;99.90
1379;DHT22;683;48.738;9.226;2023-02-24T16:34:44;8.40;99.90
1379;DHT22;683;48.738;9.226;2023-02-24T16:37:16;8.20;99.90
1379;DHT22;683;48.738;9.226;2023-02-24T16:39:44;8.20;99.90
1379;DHT22;683;48.738;9.226;2023-02-24T16:42:12;8.20;99.90
1379;DHT22;683;48.738;9.226;2023-02-24T16:44:39;8.10;99.90
1379;DHT22;683;48.738;9.226;2023-02-24T16:47:11;8.00;99.90
1379;DHT22;683;48.738;9.226;2023-02-24T16:49:40;8.00;99.90
1379;DHT22;683;48.738;9.226;2023-02-24T16:52:09;8.00;99.90
1379;DHT22;683;48.738;9.226;2023-02-24T16:54:37;7.90;99.90
1379;DHT22;683;48.738;9.226;2023-02-24T16:57:06;7.90;99.90
1379;DHT22;683;48.738;9.226;2023-02-24T16:59:33;7.80;99.90
1379;DHT22;683;48.738;9.226;2023-02-24T17:02:01;7.70;99.90
1379;DHT22;683;48.738;9.226;2023-02-24T17:04:29;7.70;99.90
1379;DHT22;683;48.738;9.226;2023-02-24T17:06:57;7.70;99.90
1379;DHT22;683;48.738;9.226;2023-02-24T17:09:25;7.70;99.90
1379;DHT22;683;48.738;9.226;2023-02-24T17:11:54;7.60;99.90
1379;DHT22;683;48.738;9.226;2023-02-24T17:14:21;7.60;99.90
1379;DHT22;683;48.738;9.226;2023-02-24T17:16:49;7.60;99.90
1379;DHT22;683;48.738;9.226;2023-02-24T17:19:16;7.60;99.90
1379;DHT22;683;48.738;9.226;2023-02-24T17:21:44;7.60;99.90
1379;DHT22;683;48.738;9.226;2023-02-24T17:24:14;7.60;99.90
1379;DHT22;683;48.738;9.226;2023-02-24T17:26:43;7.60;99.90